Terminal Aerodrome Forecast
Issued by NWS

Home | Current Version | Previous Version | Text Only | Print | Product List | Glossary On
Versions: 1 2 3 4 5 6 7 8 9 10 11 12 13 14 15 16 17 18 19
000
FTUS42 KMHX 280923 AAA
TAFOAJ
TAF AMD
KOAJ 280923Z 2809/2906 28003KT P6SM FEW030 SCT040 BKN050
     FM280945 33008KT P6SM VCSH SCT015 BKN035
     FM281400 31010G18KT P6SM SCT040
     FM290100 30008KT P6SM SKC
      AMD LTD TO CLD VIS AND WIND=

USA.gov is the U.S. government's official web portal to all federal, state and local government web resources and services.